Time;durP1;ratioP1;P1;durP2;ratioP2;P2;SDS_P1;SDS_P2;PMS_P1;PMS_P2;Temp;Humidity;BMP_temperature;BMP_pressure;BME280_temperature;BME280_humidity;BME280_pressure;Samples;Min_cycle;Max_cycle;Signal;HPM_P1;HPM_P2
2022/11/04 00:00:23;;;;;;;26.10;8.18;;;15.30;99.90;;;;;;5055295;28;20052;-72
2022/11/04 00:02:51;;;;;;;16.00;8.32;;;15.40;99.90;;;;;;5074899;28;20581;-73
2022/11/04 00:05:18;;;;;;;12.05;6.55;;;15.40;99.90;;;;;;5069448;28;20055;-73
2022/11/04 00:13:18;;;;;;;17.08;6.80;;;15.30;99.90;;;;;;5076854;28;20524;-73
2022/11/04 00:18:31;;;;;;;11.33;7.00;;;15.20;99.90;;;;;;5073967;28;20714;-72
2022/11/04 00:29:19;;;;;;;10.23;6.63;;;15.50;99.90;;;;;;5074378;28;20128;-73
2022/11/04 00:34:32;;;;;;;7.75;5.22;;;15.60;99.90;;;;;;5058979;28;20060;-73
2022/11/04 00:37:01;;;;;;;7.68;6.10;;;15.60;99.90;;;;;;5076548;28;20223;-73
2022/11/04 00:39:29;;;;;;;8.98;6.40;;;15.60;99.90;;;;;;5073642;28;20036;-73
2022/11/04 00:41:57;;;;;;;10.43;7.00;;;15.70;99.90;;;;;;5069626;28;20479;-73
2022/11/04 00:44:24;;;;;;;10.73;7.05;;;15.70;99.90;;;;;;5066795;28;20081;-74
2022/11/04 00:46:52;;;;;;;10.23;7.45;;;15.70;99.90;;;;;;5044327;28;20776;-73
2022/11/04 00:49:20;;;;;;;9.93;7.25;;;15.80;99.90;;;;;;5053619;28;20143;-74
2022/11/04 00:51:47;;;;;;;12.50;7.82;;;15.80;99.90;;;;;;5046300;28;20517;-73
2022/11/04 00:54:15;;;;;;;11.48;7.63;;;15.80;99.90;;;;;;5084565;28;20052;-73
2022/11/04 00:56:43;;;;;;;13.60;8.00;;;15.80;99.90;;;;;;5079844;28;20047;-73
2022/11/04 00:59:11;;;;;;;7.57;5.10;;;15.70;99.90;;;;;;5073980;28;20075;-72
2022/11/04 01:01:39;;;;;;;14.30;6.30;;;15.60;99.90;;;;;;5055840;28;20047;-73
2022/11/04 01:04:08;;;;;;;11.68;7.28;;;15.50;99.90;;;;;;5084119;28;20571;-75
2022/11/04 01:06:36;;;;;;;12.63;7.78;;;15.40;99.90;;;;;;5072905;28;20048;-73
2022/11/04 01:09:07;;;;;;;11.80;7.15;;;15.50;99.90;;;;;;5074790;28;20140;-73
2022/11/04 01:11:34;;;;;;;12.02;7.88;;;15.50;99.90;;;;;;5062879;28;20040;-73
2022/11/04 01:14:03;;;;;;;13.57;7.78;;;15.50;99.90;;;;;;5073104;28;20063;-74
2022/11/04 01:16:31;;;;;;;11.50;6.55;;;15.60;99.90;;;;;;5081706;28;20673;-73
2022/11/04 01:18:59;;;;;;;10.07;7.55;;;15.60;99.90;;;;;;5073227;28;20482;-73
2022/11/04 01:21:26;;;;;;;11.80;7.70;;;15.60;99.90;;;;;;5056118;28;20040;-74
2022/11/04 01:23:54;;;;;;;11.52;7.95;;;15.60;99.90;;;;;;5075478;28;20124;-73
2022/11/04 01:26:24;;;;;;;8.27;6.53;;;15.70;99.90;;;;;;5061077;28;20041;-73
2022/11/04 01:28:53;;;;;;;11.10;8.27;;;15.70;99.90;;;;;;5074592;28;20083;-74
2022/11/04 01:31:24;;;;;;;19.17;10.27;;;15.70;99.90;;;;;;5076997;28;20058;-73
2022/11/04 01:33:53;;;;;;;26.60;8.95;;;15.70;99.90;;;;;;5056639;28;20150;-73
2022/11/04 01:36:21;;;;;;;20.73;7.82;;;15.60;99.90;;;;;;5054895;28;20072;-73
2022/11/04 01:38:50;;;;;;;14.82;7.60;;;15.50;99.90;;;;;;5068556;28;20513;-73
2022/11/04 01:41:21;;;;;;;31.27;8.95;;;15.40;99.90;;;;;;5050937;28;20135;-73
2022/11/04 01:44:01;;;;;;;17.88;7.03;;;15.30;99.90;;;;;;5059881;28;20054;-73
2022/11/04 01:46:28;;;;;;;19.13;8.15;;;15.30;99.90;;;;;;5059051;28;20052;-74
2022/11/04 01:49:26;;;;;;;27.90;7.32;;;15.20;99.90;;;;;;5062668;28;20055;-73
2022/11/04 01:51:59;;;;;;;8.38;6.20;;;15.20;99.90;;;;;;5052042;28;20072;-73
2022/11/04 01:54:28;;;;;;;7.95;6.50;;;15.20;99.90;;;;;;5060510;28;20465;-73
2022/11/04 01:56:57;;;;;;;8.60;7.20;;;15.10;99.90;;;;;;5081935;28;20064;-73
2022/11/04 01:59:29;;;;;;;10.80;7.55;;;15.00;99.90;;;;;;5050791;28;20119;-72
2022/11/04 02:01:56;;;;;;;12.00;9.00;;;15.00;99.90;;;;;;5064042;28;20044;-74
2022/11/04 02:04:26;;;;;;;13.38;8.27;;;15.10;99.90;;;;;;5043561;28;20057;-73
2022/11/04 02:06:57;;;;;;;14.82;8.90;;;15.10;99.90;;;;;;5082632;28;20509;-73
2022/11/04 02:09:28;;;;;;;11.85;8.20;;;15.10;99.90;;;;;;5071387;28;20058;-73
2022/11/04 02:14:43;;;;;;;10.90;8.38;;;15.10;99.90;;;;;;5076402;28;20037;-73
2022/11/04 02:17:17;;;;;;;14.20;8.45;;;15.10;99.90;;;;;;5072182;28;20438;-73
2022/11/04 02:20:19;;;;;;;11.48;8.48;;;15.10;99.90;;;;;;5053942;28;20131;-73
2022/11/04 02:23:06;;;;;;;20.17;9.15;;;15.10;99.90;;;;;;5095779;28;20097;-73
2022/11/04 02:25:55;;;;;;;15.18;8.80;;;15.10;99.90;;;;;;5052754;28;20092;-73
2022/11/04 02:28:38;;;;;;;14.93;9.38;;;15.10;99.90;;;;;;5071155;28;20378;-73
2022/11/04 02:31:18;;;;;;;12.02;9.68;;;15.20;99.90;;;;;;5070031;28;20051;-74
2022/11/04 02:33:48;;;;;;;15.32;9.82;;;15.20;99.90;;;;;;5070376;28;20093;-73
2022/11/04 02:36:15;;;;;;;16.50;10.10;;;15.20;99.90;;;;;;5075463;28;20048;-73
2022/11/04 02:38:52;;;;;;;17.65;9.10;;;15.20;99.90;;;;;;5072002;28;20064;-72
2022/11/04 02:41:34;;;;;;;;;;;15.20;99.90;;;;;;5055933;28;20094;-73
2022/11/04 02:44:33;;;;;;;15.77;9.30;;;15.20;99.90;;;;;;5072271;28;20354;-73
2022/11/04 02:47:11;;;;;;;16.42;10.07;;;15.20;99.90;;;;;;5072267;28;20051;-73
2022/11/04 02:49:50;;;;;;;16.58;9.98;;;15.20;99.90;;;;;;5072494;28;20159;-73
2022/11/04 02:52:30;;;;;;;15.35;10.57;;;15.30;99.90;;;;;;5075018;28;20450;-73
2022/11/04 02:55:06;;;;;;;18.55;10.43;;;15.30;99.90;;;;;;5015519;28;20060;-72
2022/11/04 02:57:37;;;;;;;15.57;10.10;;;15.30;99.90;;;;;;5036422;28;20504;-75
2022/11/04 03:00:12;;;;;;;15.43;10.43;;;15.30;99.90;;;;;;5068194;28;20044;-73
2022/11/04 03:02:57;;;;;;;15.20;10.68;;;15.40;99.90;;;;;;5045954;28;20048;-73
2022/11/04 03:05:32;;;;;;;17.55;11.88;;;15.40;99.90;;;;;;5048075;28;20095;-73
2022/11/04 03:08:04;;;;;;;19.88;12.68;;;15.40;99.90;;;;;;5047954;28;20443;-72
2022/11/04 03:10:38;;;;;;;15.77;11.73;;;15.50;99.90;;;;;;5047948;28;20460;-72
2022/11/04 03:13:36;;;;;;;19.75;12.05;;;15.60;99.90;;;;;;5048269;28;20511;-75
2022/11/04 03:16:10;;;;;;;20.65;13.13;;;15.60;99.90;;;;;;5031435;28;20056;-73
2022/11/04 03:19:02;;;;;;;20.13;13.55;;;15.60;99.90;;;;;;5015133;28;20057;-73
2022/11/04 03:21:35;;;;;;;19.42;13.65;;;15.60;99.90;;;;;;5047862;28;20153;-73
2022/11/04 03:24:03;;;;;;;21.13;13.45;;;15.70;99.90;;;;;;5031609;28;20143;-72
2022/11/04 03:26:35;;;;;;;22.02;16.25;;;15.70;99.90;;;;;;5031592;28;20048;-73
2022/11/04 03:29:20;;;;;;;18.65;13.13;;;15.70;99.90;;;;;;5031333;28;20605;-72
2022/11/04 03:32:12;;;;;;;24.55;15.00;;;15.70;99.90;;;;;;5047681;28;20045;-73
2022/11/04 03:34:40;;;;;;;20.65;14.10;;;15.80;99.90;;;;;;5048943;28;20092;-73
2022/11/04 03:39:17;;;;;;;24.48;16.52;;;15.80;99.90;;;;;;5101287;27;20451;-72
2022/11/04 03:42:01;;;;;;;22.23;15.63;;;15.90;99.90;;;;;;5067604;28;20052;-72
2022/11/04 03:44:29;;;;;;;24.30;14.35;;;15.90;99.90;;;;;;5085907;28;20058;-72
2022/11/04 03:46:56;;;;;;;24.83;16.13;;;16.00;99.90;;;;;;5086109;28;20055;-73
2022/11/04 03:49:24;;;;;;;17.30;12.63;;;16.00;99.90;;;;;;5065237;28;20056;-72
2022/11/04 03:51:52;;;;;;;31.80;14.02;;;16.10;99.90;;;;;;5067415;28;20131;-72
2022/11/04 03:54:19;;;;;;;26.90;17.02;;;16.00;99.90;;;;;;5050951;28;20813;-72
2022/11/04 03:56:50;;;;;;;28.30;15.48;;;16.00;99.90;;;;;;5067580;28;20060;-72
2022/11/04 03:59:31;;;;;;;30.27;17.80;;;16.00;99.90;;;;;;5050628;28;20146;-72
2022/11/04 04:02:13;;;;;;;23.63;16.33;;;16.00;99.90;;;;;;5066541;28;20382;-74
2022/11/04 04:04:53;;;;;;;33.75;16.48;;;16.00;99.90;;;;;;5050623;28;20048;-72
2022/11/04 04:07:34;;;;;;;31.13;17.60;;;16.00;99.90;;;;;;5067263;28;20212;-72
2022/11/04 04:13:12;;;;;;;42.72;16.70;;;15.90;99.90;;;;;;5050116;28;20058;-71
2022/11/04 04:16:06;;;;;;;29.40;14.32;;;15.90;99.90;;;;;;5052966;28;20052;-71
2022/11/04 04:18:43;;;;;;;23.63;16.48;;;15.80;99.90;;;;;;5084636;28;20052;-73
2022/11/04 04:21:17;;;;;;;27.42;14.25;;;15.80;99.90;;;;;;5067720;28;20044;-72
2022/11/04 04:29:26;;;;;;;25.23;14.57;;;16.00;99.90;;;;;;5083818;28;20119;-72
2022/11/04 04:31:56;;;;;;;21.80;13.95;;;16.10;99.90;;;;;;5050412;28;20048;-72
2022/11/04 04:34:29;;;;;;;24.08;13.57;;;16.10;99.90;;;;;;5066963;28;20036;-72
2022/11/04 04:37:19;;;;;;;24.20;12.85;;;16.10;99.90;;;;;;5084444;28;20044;-71
2022/11/04 04:45:31;;;;;;;31.45;14.07;;;16.00;99.90;;;;;;5066464;28;20426;-74
2022/11/04 04:47:59;;;;;;;32.53;15.40;;;16.00;99.90;;;;;;5066393;28;20534;-72
2022/11/04 04:50:30;;;;;;;46.33;14.90;;;16.00;99.90;;;;;;5070995;28;20059;-72
2022/11/04 04:52:59;;;;;;;32.70;13.20;;;16.00;99.90;;;;;;5053270;28;20131;-74
2022/11/04 04:55:27;;;;;;;28.58;11.52;;;15.90;99.90;;;;;;5069581;28;20118;-72
2022/11/04 04:57:54;;;;;;;52.88;12.10;;;15.90;99.90;;;;;;5069195;28;20044;-72
2022/11/04 05:00:22;;;;;;;32.58;10.63;;;15.90;99.90;;;;;;5069546;28;20037;-72
2022/11/04 05:02:50;;;;;;;22.80;11.70;;;15.90;99.90;;;;;;5069603;28;20052;-73
2022/11/04 05:05:18;;;;;;;18.90;10.57;;;15.90;99.90;;;;;;5052862;28;20048;-72
2022/11/04 05:07:45;;;;;;;18.10;10.38;;;15.90;99.90;;;;;;5069688;28;20052;-72
2022/11/04 05:10:14;;;;;;;21.45;10.60;;;15.90;99.90;;;;;;5069212;28;20050;-72
2022/11/04 05:15:29;;;;;;;19.63;11.35;;;16.00;99.90;;;;;;5052725;28;20055;-72
2022/11/04 05:17:59;;;;;;;16.27;11.30;;;16.00;99.90;;;;;;5069004;28;20490;-72
2022/11/04 05:20:32;;;;;;;18.02;11.20;;;15.90;99.90;;;;;;5052224;28;20051;-72
2022/11/04 05:23:00;;;;;;;26.35;13.18;;;15.90;99.90;;;;;;5068734;28;20060;-72
2022/11/04 05:25:28;;;;;;;16.40;10.70;;;15.90;99.90;;;;;;5052237;28;20052;-72
2022/11/04 05:27:59;;;;;;;16.77;11.27;;;15.90;99.90;;;;;;5052563;28;20398;-73
2022/11/04 05:30:27;;;;;;;21.92;13.32;;;15.90;99.90;;;;;;5065571;28;20082;-72
2022/11/04 05:32:55;;;;;;;24.60;14.30;;;16.00;99.90;;;;;;5052420;28;20465;-73
2022/11/04 05:35:23;;;;;;;20.67;13.73;;;16.00;99.90;;;;;;5052492;28;20577;-72
2022/11/04 05:37:51;;;;;;;32.45;16.80;;;16.10;99.90;;;;;;5069803;28;20135;-72
2022/11/04 05:40:18;;;;;;;27.65;16.27;;;16.20;99.90;;;;;;5051064;28;20044;-72
2022/11/04 05:42:46;;;;;;;26.10;17.85;;;16.30;99.90;;;;;;5068987;28;20433;-71
2022/11/04 05:45:13;;;;;;;26.90;16.45;;;16.40;99.90;;;;;;5068510;28;20040;-72
2022/11/04 05:47:40;;;;;;;24.92;16.55;;;16.40;99.90;;;;;;5068686;28;20052;-72
2022/11/04 05:50:08;;;;;;;25.60;18.52;;;16.50;99.90;;;;;;5051816;28;20052;-72
2022/11/04 05:52:36;;;;;;;32.55;19.10;;;16.60;99.90;;;;;;5052328;28;20235;-72
2022/11/04 05:55:04;;;;;;;25.27;17.58;;;16.70;99.90;;;;;;5052345;28;20524;-71
2022/11/04 05:57:31;;;;;;;21.38;15.82;;;16.70;99.90;;;;;;5069980;28;20040;-72
2022/11/04 05:59:59;;;;;;;24.50;16.70;;;16.80;99.90;;;;;;5068458;28;20060;-72
2022/11/04 06:02:26;;;;;;;22.92;15.02;;;16.80;99.90;;;;;;5051498;28;20044;-72
2022/11/04 06:04:54;;;;;;;25.70;16.95;;;16.90;99.90;;;;;;5051835;28;20131;-72
2022/11/04 06:07:22;;;;;;;36.60;17.13;;;17.00;99.90;;;;;;5047989;28;20453;-72
2022/11/04 06:09:49;;;;;;;28.15;17.55;;;17.20;99.90;;;;;;5048444;28;20081;-72
2022/11/04 06:12:17;;;;;;;27.88;20.73;;;17.40;99.90;;;;;;5048626;28;20439;-71
2022/11/04 06:14:44;;;;;;;27.80;17.80;;;17.60;99.90;;;;;;5049807;28;20056;-72
2022/11/04 06:17:17;;;;;;;27.15;16.00;;;17.80;99.90;;;;;;5049369;28;20080;-72
2022/11/04 06:19:45;;;;;;;26.10;16.33;;;18.00;99.90;;;;;;5031313;28;20536;-73
2022/11/04 06:22:18;;;;;;;18.77;13.55;;;18.10;99.90;;;;;;5049401;28;20843;-73
2022/11/04 06:24:45;;;;;;;22.25;16.50;;;18.20;99.90;;;;;;5031750;28;20053;-73
2022/11/04 06:27:13;;;;;;;18.73;14.15;;;18.40;99.90;;;;;;5031584;28;20507;-74
2022/11/04 06:29:41;;;;;;;20.17;12.27;;;18.60;99.90;;;;;;5031440;28;20048;-73
2022/11/04 06:32:10;;;;;;;18.88;11.95;;;18.80;99.90;;;;;;5031101;28;20086;-72
2022/11/04 06:34:38;;;;;;;21.25;12.40;;;19.00;99.90;;;;;;5015859;28;20072;-73
2022/11/04 06:37:07;;;;;;;21.88;12.25;;;18.90;99.90;;;;;;5031346;28;20065;-72
2022/11/04 06:39:35;;;;;;;19.15;11.90;;;18.80;99.90;;;;;;5049150;28;20064;-73
2022/11/04 06:42:03;;;;;;;19.80;11.45;;;18.90;99.90;;;;;;5031088;28;20045;-73
2022/11/04 06:44:33;;;;;;;17.98;10.90;;;18.80;99.90;;;;;;5063844;28;20075;-73
2022/11/04 06:47:01;;;;;;;19.60;10.07;;;19.00;99.90;;;;;;5047479;28;20056;-73
2022/11/04 06:49:29;;;;;;;15.95;10.82;;;19.00;99.90;;;;;;5047461;28;20048;-74
2022/11/04 06:51:57;;;;;;;15.57;10.93;;;19.20;99.90;;;;;;5047449;28;20111;-73
2022/11/04 06:54:24;;;;;;;20.42;12.55;;;19.50;99.90;;;;;;5047512;28;20052;-73
2022/11/04 06:56:52;;;;;;;19.30;10.80;;;19.70;99.90;;;;;;5048842;28;20490;-73
2022/11/04 06:59:19;;;;;;;13.80;9.52;;;19.80;99.90;;;;;;5063880;28;20475;-73
2022/11/04 07:01:49;;;;;;;17.65;10.20;;;19.70;99.90;;;;;;5014538;28;20487;-72
2022/11/04 07:04:17;;;;;;;14.02;9.90;;;19.60;99.90;;;;;;5014351;28;20049;-72
2022/11/04 07:06:45;;;;;;;21.35;14.25;;;19.50;99.90;;;;;;5047627;28;20052;-73
2022/11/04 07:09:14;;;;;;;18.73;10.68;;;19.50;99.90;;;;;;5030536;28;20148;-72
2022/11/04 07:11:42;;;;;;;16.02;10.25;;;19.40;99.90;;;;;;5029957;28;20147;-73
2022/11/04 07:14:11;;;;;;;16.33;9.50;;;19.40;99.90;;;;;;5046396;28;20078;-72
2022/11/04 07:16:39;;;;;;;23.48;11.55;;;19.60;99.90;;;;;;5046647;28;20051;-72
2022/11/04 07:19:06;;;;;;;17.08;10.38;;;19.60;99.90;;;;;;5064790;28;20044;-73
2022/11/04 07:21:34;;;;;;;16.95;10.05;;;19.50;99.90;;;;;;5064492;28;20041;-73
2022/11/04 07:24:02;;;;;;;17.80;11.82;;;19.40;99.90;;;;;;5042026;28;20049;-72
2022/11/04 07:26:29;;;;;;;15.50;10.35;;;19.30;99.90;;;;;;5021336;28;20053;-73
2022/11/04 07:28:59;;;;;;;15.80;9.73;;;19.20;99.90;;;;;;5055637;28;20400;-74
2022/11/04 07:31:27;;;;;;;21.90;13.07;;;19.20;99.90;;;;;;5045142;28;20460;-74
2022/11/04 07:33:55;;;;;;;23.35;12.82;;;19.10;99.90;;;;;;5049321;28;20490;-72
2022/11/04 07:36:22;;;;;;;21.48;11.95;;;19.10;99.90;;;;;;5058882;28;20036;-73
2022/11/04 07:38:50;;;;;;;17.30;11.18;;;19.10;99.90;;;;;;5061952;28;20040;-72
2022/11/04 07:41:18;;;;;;;20.75;12.43;;;19.20;99.90;;;;;;5067317;28;20051;-72
2022/11/04 07:43:50;;;;;;;20.10;11.65;;;19.40;99.90;;;;;;5063253;28;20040;-72
2022/11/04 07:46:19;;;;;;;18.40;12.98;;;19.60;99.90;;;;;;5031813;28;20044;-72
2022/11/04 07:48:47;;;;;;;20.23;10.63;;;19.80;99.90;;;;;;5060161;28;20093;-73
2022/11/04 07:51:17;;;;;;;19.88;9.98;;;20.00;99.90;;;;;;5044189;28;20742;-73
2022/11/04 07:53:45;;;;;;;14.57;8.93;;;20.10;99.90;;;;;;5050552;28;20055;-72
2022/11/04 07:56:13;;;;;;;18.02;10.40;;;20.00;99.90;;;;;;5049298;28;20044;-72
2022/11/04 07:58:41;;;;;;;15.85;9.13;;;20.10;99.90;;;;;;5049516;28;20090;-72
2022/11/04 08:01:12;;;;;;;15.20;8.55;;;20.00;99.90;;;;;;5066364;28;20082;-73
2022/11/04 08:03:40;;;;;;;12.40;8.23;;;19.90;99.90;;;;;;5065380;28;20158;-71
2022/11/04 08:06:10;;;;;;;13.75;8.70;;;19.80;99.90;;;;;;5058658;28;20045;-74
2022/11/04 08:08:38;;;;;;;10.55;6.80;;;19.90;99.90;;;;;;5046532;28;20045;-71
2022/11/04 08:11:15;;;;;;;15.80;7.75;;;19.90;99.90;;;;;;5053594;28;20040;-70
2022/11/04 08:13:45;;;;;;;10.77;7.07;;;20.10;99.90;;;;;;5053109;28;20067;-71
2022/11/04 08:16:15;;;;;;;11.15;7.03;;;20.10;99.90;;;;;;5030149;28;20077;-73
2022/11/04 08:18:43;;;;;;;9.48;6.20;;;20.00;99.90;;;;;;5029765;28;20491;-72
2022/11/04 08:21:11;;;;;;;14.30;8.98;;;20.10;99.90;;;;;;5046339;28;20053;-72
2022/11/04 08:23:39;;;;;;;10.55;7.05;;;20.20;99.90;;;;;;5047763;28;20132;-72
2022/11/04 08:26:13;;;;;;;14.18;7.43;;;20.40;99.90;;;;;;5052633;28;20049;-73
2022/11/04 08:28:41;;;;;;;11.93;7.28;;;20.60;99.90;;;;;;5054287;28;20059;-74
2022/11/04 08:31:11;;;;;;;13.15;7.47;;;20.80;99.90;;;;;;5049093;28;20134;-72
2022/11/04 08:33:40;;;;;;;8.82;6.30;;;21.00;99.90;;;;;;5032219;28;20079;-72
2022/11/04 08:36:11;;;;;;;13.73;7.32;;;21.00;99.90;;;;;;5048727;28;20041;-72
2022/11/04 08:38:39;;;;;;;11.45;6.47;;;21.10;99.90;;;;;;5032150;28;20052;-71
2022/11/04 08:41:09;;;;;;;9.00;6.05;;;21.10;99.90;;;;;;5049307;28;20083;-71
2022/11/04 08:43:37;;;;;;;9.38;6.68;;;21.20;99.90;;;;;;5016607;28;20491;-72
2022/11/04 08:46:07;;;;;;;10.43;7.70;;;21.50;99.90;;;;;;5033143;28;20049;-73
2022/11/04 08:48:36;;;;;;;11.13;7.05;;;21.60;99.90;;;;;;5016938;28;20067;-72
2022/11/04 08:51:10;;;;;;;13.95;7.50;;;21.60;99.90;;;;;;5033675;28;20106;-72
2022/11/04 08:53:38;;;;;;;12.93;7.63;;;21.60;99.90;;;;;;5051338;28;20053;-72
2022/11/04 08:56:33;;;;;;;17.98;7.30;;;21.60;99.90;;;;;;5049601;28;20508;-73
2022/11/04 08:59:03;;;;;;;10.90;7.10;;;21.40;99.90;;;;;;5049540;28;20053;-72
2022/11/04 09:01:33;;;;;;;16.00;7.03;;;21.60;99.90;;;;;;5049593;28;20153;-71
2022/11/04 09:04:03;;;;;;;6.88;5.63;;;21.90;99.90;;;;;;5032769;28;20151;-72
2022/11/04 09:06:35;;;;;;;11.05;7.03;;;21.90;99.90;;;;;;5049279;28;20049;-72
2022/11/04 09:09:08;;;;;;;10.15;6.82;;;22.00;99.90;;;;;;5050835;28;20661;-71
2022/11/04 09:11:38;;;;;;;10.23;6.05;;;22.10;99.90;;;;;;5049670;28;20116;-72
2022/11/04 09:14:06;;;;;;;10.98;5.85;;;22.00;99.90;;;;;;5049166;28;20132;-72
2022/11/04 09:16:35;;;;;;;9.52;5.97;;;21.80;99.90;;;;;;5032775;28;20432;-71
2022/11/04 09:23:27;;;;;;;14.10;6.78;;;21.70;99.90;;;;;;5050544;28;20475;-71
2022/11/04 09:25:57;;;;;;;8.52;5.60;;;22.00;99.90;;;;;;5049119;28;20040;-71
2022/11/04 09:28:25;;;;;;;6.65;5.28;;;22.00;99.90;;;;;;5032718;28;20045;-71
2022/11/04 09:30:52;;;;;;;8.48;5.68;;;22.20;99.90;;;;;;5049264;28;20086;-72
2022/11/04 09:33:20;;;;;;;12.38;4.93;;;22.40;99.90;;;;;;5049204;28;20071;-72
2022/11/04 09:35:56;;;;;;;8.85;5.15;;;22.40;99.90;;;;;;5032670;28;20079;-71
2022/11/04 09:38:24;;;;;;;8.80;5.05;;;22.60;99.90;;;;;;5016169;28;20087;-71
2022/11/04 09:40:52;;;;;;;8.23;4.55;;;22.80;99.90;;;;;;5048864;28;20746;-72
2022/11/04 09:43:45;;;;;;;8.77;4.10;;;22.80;99.90;;;;;;5049014;28;20095;-71
2022/11/04 09:46:13;;;;;;;6.03;3.83;;;22.90;99.90;;;;;;5048567;28;20099;-71
2022/11/04 09:48:52;;;;;;;6.93;3.95;;;22.70;99.90;;;;;;5032315;28;20084;-72
2022/11/04 09:51:24;;;;;;;6.65;3.75;;;22.90;99.90;;;;;;5048727;28;20091;-71
2022/11/04 09:54:30;;;;;;;7.72;3.95;;;22.80;99.90;;;;;;5065507;28;20449;-71
2022/11/04 09:57:00;;;;;;;10.13;5.18;;;22.60;99.90;;;;;;5035651;28;20528;-72
2022/11/04 09:59:32;;;;;;;7.03;4.65;;;22.40;99.90;;;;;;5033427;28;20468;-73
2022/11/04 10:02:05;;;;;;;9.27;4.15;;;22.30;99.90;;;;;;5067946;28;20048;-72
2022/11/04 10:04:50;;;;;;;6.53;4.47;;;22.60;99.90;;;;;;5068362;28;20056;-71
2022/11/04 10:07:27;;;;;;;5.60;3.95;;;22.80;99.90;;;;;;5069681;28;20047;-71
2022/11/04 10:10:22;;;;;;;5.93;3.65;;;23.00;99.90;;;;;;5051147;28;20053;-72
2022/11/04 10:13:04;;;;;;;7.72;5.50;;;23.20;99.90;;;;;;5067957;28;20044;-71
2022/11/04 10:15:53;;;;;;;6.03;3.47;;;23.20;99.90;;;;;;5067858;28;20048;-72
2022/11/04 10:18:42;;;;;;;5.05;3.92;;;23.00;99.90;;;;;;5051561;28;20118;-73
2022/11/04 10:21:18;;;;;;;5.72;4.45;;;23.10;99.90;;;;;;5068282;28;20056;-72
2022/11/04 10:24:26;;;;;;;10.57;4.95;;;23.00;99.90;;;;;;5069481;28;20044;-72
2022/11/04 10:27:02;;;;;;;6.70;4.25;;;22.80;99.90;;;;;;5054714;28;20431;-72
2022/11/04 10:30:00;;;;;;;7.28;3.65;;;22.60;99.90;;;;;;5069197;28;20550;-73
2022/11/04 10:32:58;;;;;;;9.75;5.45;;;22.60;99.90;;;;;;5067962;28;20029;-71
2022/11/04 10:36:08;;;;;;;8.48;4.80;;;22.30;99.90;;;;;;5046452;28;20506;-73
2022/11/04 10:38:50;;;;;;;7.68;5.18;;;22.20;99.90;;;;;;4990707;28;20239;-71
2022/11/04 10:41:23;;;;;;;46.95;26.63;;;22.10;99.90;;;;;;4991308;28;20061;-73
2022/11/04 10:44:02;;;;;;;15.80;7.68;;;22.00;99.90;;;;;;5024509;28;20059;-73
2022/11/04 10:46:44;;;;;;;9.85;5.65;;;22.00;99.90;;;;;;5068523;28;20049;-74
2022/11/04 10:49:15;;;;;;;15.10;9.82;;;22.20;99.90;;;;;;5063518;28;20037;-73
2022/11/04 10:51:44;;;;;;;8.32;5.55;;;22.40;99.90;;;;;;5031380;28;20052;-74
2022/11/04 10:54:12;;;;;;;7.90;4.97;;;22.60;99.90;;;;;;5030817;28;20057;-73
2022/11/04 10:56:45;;;;;;;9.30;5.15;;;22.70;99.90;;;;;;5031203;28;20059;-73
2022/11/04 10:59:29;;;;;;;10.27;6.40;;;22.70;99.90;;;;;;5047801;28;20057;-75
2022/11/04 11:02:01;;;;;;;28.48;19.70;;;22.70;99.90;;;;;;5048179;28;20052;-72
2022/11/04 11:04:39;;;;;;;22.30;10.50;;;22.60;99.90;;;;;;5047773;28;20510;-72
2022/11/04 11:07:12;;;;;;;19.15;10.18;;;22.50;99.90;;;;;;5031144;28;20076;-74
2022/11/04 11:09:55;;;;;;;17.83;9.05;;;22.50;99.90;;;;;;5031497;28;20775;-73
2022/11/04 11:12:39;;;;;;;20.70;11.30;;;22.50;99.90;;;;;;5031506;28;20556;-73
2022/11/04 11:15:29;;;;;;;8.95;6.30;;;22.40;99.90;;;;;;5047529;28;20041;-72
2022/11/04 11:18:17;;;;;;;8.45;5.97;;;22.40;99.90;;;;;;5031014;28;20079;-72
2022/11/04 11:20:50;;;;;;;16.55;9.95;;;22.40;99.90;;;;;;5047404;28;20077;-73
2022/11/04 11:23:35;;;;;;;21.38;13.75;;;22.40;99.90;;;;;;5047931;28;20064;-74
2022/11/04 11:26:06;;;;;;;11.70;6.72;;;22.50;99.90;;;;;;5046827;28;20045;-74
2022/11/04 11:28:37;;;;;;;10.95;6.18;;;22.60;99.90;;;;;;5057686;28;20067;-73
2022/11/04 11:31:11;;;;;;;10.30;5.70;;;22.60;99.90;;;;;;5050960;28;20084;-74
2022/11/04 11:33:49;;;;;;;9.95;5.18;;;22.60;99.90;;;;;;5050632;28;20084;-75
2022/11/04 11:36:22;;;;;;;7.75;4.28;;;22.50;99.90;;;;;;5067261;28;20036;-75
2022/11/04 11:39:18;;;;;;;9.50;5.70;;;22.50;99.90;;;;;;5049293;28;20200;-74
2022/11/04 11:42:01;;;;;;;8.38;5.22;;;22.50;99.90;;;;;;5045566;28;20072;-75
2022/11/04 11:44:49;;;;;;;8.65;4.85;;;22.40;99.90;;;;;;5058920;28;20056;-81
2022/11/04 11:47:29;;;;;;;9.85;5.32;;;22.30;99.90;;;;;;5039492;28;20044;-74
2022/11/04 11:50:15;;;;;;;11.73;4.97;;;22.30;99.90;;;;;;5036481;28;20441;-82
2022/11/04 11:52:45;;;;;;;11.88;4.78;;;22.20;99.90;;;;;;5025036;28;20421;-83
2022/11/04 11:55:25;;;;;;;10.82;5.50;;;22.20;99.90;;;;;;5040237;28;20084;-76
2022/11/04 11:58:18;;;;;;;8.68;5.07;;;22.20;99.90;;;;;;5035438;28;20083;-81
2022/11/04 12:01:11;;;;;;;9.85;5.03;;;22.30;99.90;;;;;;5052678;28;20040;-76
2022/11/04 12:03:48;;;;;;;8.93;5.97;;;22.30;99.90;;;;;;5061724;28;20129;-76
2022/11/04 12:06:46;;;;;;;12.88;5.55;;;22.30;99.90;;;;;;5035835;28;20041;-77
2022/11/04 12:09:45;;;;;;;8.30;5.05;;;22.20;99.90;;;;;;5045175;28;20142;-77
2022/11/04 12:12:21;;;;;;;7.15;5.18;;;22.40;99.90;;;;;;5051266;28;20045;-76
2022/11/04 12:15:20;;;;;;;8.53;5.70;;;22.50;99.90;;;;;;5032625;28;20059;-76
2022/11/04 12:18:40;;;;;;;7.40;4.72;;;22.50;99.90;;;;;;5038229;28;20283;-72
2022/11/04 12:21:22;;;;;;;8.40;5.10;;;22.30;99.90;;;;;;4994918;28;20050;-76
2022/11/04 12:24:00;;;;;;;12.18;4.82;;;22.20;99.90;;;;;;4993792;28;20048;-76
2022/11/04 12:26:46;;;;;;;11.07;5.90;;;22.10;99.90;;;;;;5038359;28;20490;-75
2022/11/04 12:29:20;;;;;;;12.95;6.20;;;22.00;99.90;;;;;;5054815;28;20048;-75
2022/11/04 12:32:17;;;;;;;9.23;5.43;;;21.90;99.90;;;;;;5050306;28;20135;-75
2022/11/04 12:35:05;;;;;;;11.02;8.65;;;22.00;99.90;;;;;;5027020;28;20051;-75
2022/11/04 12:38:01;;;;;;;6.43;5.25;;;21.90;99.90;;;;;;5064587;28;20064;-75
2022/11/04 12:40:29;;;;;;;;;;;22.00;99.90;;;;;;5069812;28;20055;-76
2022/11/04 12:43:11;;;;;;;9.98;5.93;;;21.90;99.90;;;;;;5036918;28;19931;-75
2022/11/04 12:45:57;;;;;;;11.90;6.25;;;22.00;99.90;;;;;;5053382;28;20454;-75
2022/11/04 12:48:43;;;;;;;8.82;5.00;;;22.10;99.90;;;;;;5051756;28;20044;-84
2022/11/04 12:51:23;;;;;;;8.52;5.50;;;22.20;99.90;;;;;;5053602;28;20124;-77
2022/11/04 12:53:59;;;;;;;9.57;6.47;;;22.10;99.90;;;;;;5050409;28;20052;-78
2022/11/04 12:56:39;;;;;;;10.93;7.00;;;22.10;99.90;;;;;;5051069;28;20055;-77
2022/11/04 12:59:52;;;;;;;12.73;6.97;;;22.20;99.90;;;;;;5036743;28;20052;-76
2022/11/04 13:02:27;;;;;;;12.82;6.80;;;22.10;99.90;;;;;;5029790;28;20510;-76
2022/11/04 13:05:02;;;;;;;65.30;32.85;;;21.90;99.90;;;;;;5045787;28;20076;-75
2022/11/04 13:07:34;;;;;;;31.48;16.92;;;21.90;99.90;;;;;;5036035;28;20754;-76
2022/11/04 13:10:26;;;;;;;25.88;15.38;;;21.80;99.90;;;;;;5068687;28;20051;-77
2022/11/04 13:12:55;;;;;;;29.60;18.15;;;21.70;99.90;;;;;;5050105;28;20049;-75
2022/11/04 13:15:31;;;;;;;15.35;8.63;;;21.70;99.90;;;;;;5035837;28;20049;-75
2022/11/04 13:18:03;;;;;;;17.95;10.82;;;21.70;99.90;;;;;;5037907;28;20041;-76
2022/11/04 13:20:52;;;;;;;15.32;12.23;;;21.60;99.90;;;;;;5064640;28;20044;-77
2022/11/04 13:23:29;;;;;;;19.40;13.30;;;21.60;99.90;;;;;;5050524;28;20502;-75
2022/11/04 13:25:59;;;;;;;14.65;7.35;;;21.60;99.90;;;;;;5053759;28;20494;-79
2022/11/04 13:28:27;;;;;;;13.98;7.95;;;21.50;99.90;;;;;;5049420;28;20045;-80
2022/11/04 13:31:02;;;;;;;8.65;5.65;;;21.50;99.90;;;;;;5048787;28;20122;-76
2022/11/04 13:33:33;;;;;;;10.05;5.97;;;21.40;99.90;;;;;;5032927;28;20190;-80
2022/11/04 13:36:23;;;;;;;7.72;6.20;;;21.40;99.90;;;;;;5036540;28;20053;-75
2022/11/04 13:39:00;;;;;;;13.38;6.57;;;21.40;99.90;;;;;;5055823;28;20048;-76
2022/11/04 13:41:28;;;;;;;10.75;6.70;;;21.30;99.90;;;;;;5036749;28;20149;-75
2022/11/04 13:44:02;;;;;;;13.02;7.05;;;21.30;99.90;;;;;;5049370;28;20085;-76
2022/11/04 13:46:33;;;;;;;15.23;9.45;;;21.20;99.90;;;;;;5035787;28;20514;-76
2022/11/04 13:49:05;;;;;;;10.30;8.05;;;21.20;99.90;;;;;;5048884;28;20047;-75
2022/11/04 13:51:39;;;;;;;14.25;8.15;;;21.10;99.90;;;;;;5044674;28;20071;-76
2022/11/04 13:54:23;;;;;;;17.52;9.05;;;21.10;99.90;;;;;;5032839;28;20149;-76
2022/11/04 13:57:04;;;;;;;15.05;8.32;;;21.10;99.90;;;;;;5059126;28;20041;-76